createdAt,value
2023-03-15T00:00:34.730Z,8.73
2023-03-15T00:03:25.540Z,8.97
2023-03-15T00:06:15.868Z,9.50
2023-03-15T00:09:05.524Z,8.97
2023-03-15T00:11:56.221Z,8.97
2023-03-15T00:14:45.530Z,8.90
2023-03-15T00:17:35.413Z,9.00
2023-03-15T00:20:24.671Z,9.00
2023-03-15T00:23:14.477Z,9.03
2023-03-15T00:26:03.822Z,8.80
2023-03-15T00:28:54.572Z,9.20
2023-03-15T00:31:43.948Z,9.33
2023-03-15T00:34:34.826Z,9.10
2023-03-15T00:37:25.749Z,9.53
2023-03-15T00:40:15.189Z,9.10
2023-03-15T00:43:04.574Z,9.00
2023-03-15T00:45:55.239Z,9.10
2023-03-15T00:48:44.614Z,9.20
2023-03-15T00:51:33.902Z,9.20
2023-03-15T00:54:23.863Z,9.03
2023-03-15T00:57:13.564Z,8.80
2023-03-15T01:00:08.756Z,9.10
2023-03-15T01:02:59.397Z,8.97
2023-03-15T01:05:48.886Z,9.53
2023-03-15T01:08:38.387Z,9.00
2023-03-15T01:11:29.262Z,9.33
2023-03-15T01:14:19.904Z,9.03
2023-03-15T01:17:09.424Z,9.03
2023-03-15T01:20:00.647Z,8.90
2023-03-15T01:22:50.040Z,8.90
2023-03-15T01:25:39.388Z,8.97
2023-03-15T01:28:28.869Z,9.17
2023-03-15T01:31:22.768Z,9.00
2023-03-15T01:34:12.173Z,8.73
2023-03-15T01:37:03.838Z,8.63
2023-03-15T01:40:00.241Z,9.17
2023-03-15T01:43:18.795Z,9.50
2023-03-15T01:46:23.941Z,9.07
2023-03-15T01:49:19.214Z,9.00
2023-03-15T01:52:13.329Z,8.90
2023-03-15T01:55:19.486Z,9.00
2023-03-15T01:58:27.291Z,9.10
2023-03-15T02:01:18.267Z,9.33
2023-03-15T02:04:13.602Z,9.33
2023-03-15T02:07:07.307Z,8.90
2023-03-15T02:10:05.478Z,9.00
2023-03-15T02:12:58.195Z,8.90
2023-03-15T02:15:49.809Z,9.23
2023-03-15T02:18:46.976Z,8.97
2023-03-15T02:21:48.290Z,9.27
2023-03-15T02:24:48.871Z,8.87
2023-03-15T02:27:40.964Z,9.00
2023-03-15T02:30:30.485Z,8.83
2023-03-15T02:33:25.620Z,9.00
2023-03-15T02:36:21.225Z,8.90
2023-03-15T02:39:19.471Z,9.40
2023-03-15T02:42:09.634Z,9.73
2023-03-15T02:45:00.534Z,9.20
2023-03-15T02:47:51.084Z,8.87
2023-03-15T02:50:40.821Z,9.00
2023-03-15T02:53:30.864Z,9.10
2023-03-15T02:56:20.592Z,8.90
2023-03-15T02:59:10.089Z,9.30
2023-03-15T03:02:00.882Z,9.27
2023-03-15T03:04:50.370Z,9.20
2023-03-15T03:07:42.854Z,9.33
2023-03-15T03:10:32.441Z,8.90
2023-03-15T03:13:23.291Z,9.00
2023-03-15T03:16:12.915Z,8.80
2023-03-15T03:19:04.171Z,9.00
2023-03-15T03:21:54.897Z,9.20
2023-03-15T03:24:45.948Z,9.07
2023-03-15T03:27:37.093Z,9.00
2023-03-15T03:30:27.960Z,9.20
2023-03-15T03:33:17.420Z,8.93
2023-03-15T03:36:13.077Z,9.00
2023-03-15T03:39:02.836Z,9.30
2023-03-15T03:41:52.192Z,9.40
2023-03-15T03:44:41.929Z,9.10
2023-03-15T03:47:31.340Z,9.33
2023-03-15T03:50:21.123Z,9.50
2023-03-15T03:53:12.134Z,8.83
2023-03-15T03:56:04.123Z,9.00
2023-03-15T03:58:53.503Z,9.10
2023-03-15T04:01:52.770Z,9.90
2023-03-15T04:04:42.296Z,9.40
2023-03-15T04:07:38.116Z,8.97
2023-03-15T04:10:29.402Z,9.77
2023-03-15T04:13:18.968Z,9.03
2023-03-15T04:16:09.527Z,9.23
2023-03-15T04:19:13.899Z,9.23
2023-03-15T04:22:07.087Z,9.00
2023-03-15T04:25:20.136Z,9.00
2023-03-15T04:28:30.882Z,9.20
2023-03-15T04:31:46.301Z,9.20
2023-03-15T04:34:51.366Z,9.07
2023-03-15T04:38:05.089Z,9.00
2023-03-15T04:41:00.226Z,9.33
2023-03-15T04:44:07.610Z,9.43
2023-03-15T04:47:20.592Z,9.50
2023-03-15T04:50:33.061Z,9.27
2023-03-15T04:53:40.713Z,8.80
2023-03-15T04:56:48.787Z,8.90
2023-03-15T04:59:58.129Z,9.07
2023-03-15T05:03:16.241Z,8.80
2023-03-15T05:06:12.505Z,8.90
2023-03-15T05:09:40.268Z,9.73
2023-03-15T05:12:52.347Z,8.80
2023-03-15T05:16:00.174Z,9.03
2023-03-15T05:19:00.689Z,8.90
2023-03-15T05:22:01.164Z,9.47
2023-03-15T05:25:01.737Z,9.00
2023-03-15T05:28:04.908Z,9.27
2023-03-15T05:31:24.714Z,9.10
2023-03-15T05:34:37.814Z,8.90
2023-03-15T05:37:49.514Z,9.77
2023-03-15T05:40:55.100Z,9.10
2023-03-15T05:43:53.564Z,9.20
2023-03-15T05:47:02.549Z,8.93
2023-03-15T05:50:28.206Z,9.07
2023-03-15T05:53:37.772Z,9.10
2023-03-15T05:56:35.687Z,9.13
2023-03-15T05:59:39.652Z,9.00
2023-03-15T06:02:49.114Z,9.30
2023-03-15T06:06:01.063Z,9.00
2023-03-15T06:08:58.130Z,9.00
2023-03-15T06:11:47.749Z,9.10
2023-03-15T06:14:37.202Z,8.90
2023-03-15T06:17:29.996Z,8.60
2023-03-15T06:20:21.263Z,8.90
2023-03-15T06:23:11.489Z,8.90
2023-03-15T06:26:09.138Z,8.73
2023-03-15T06:28:58.489Z,9.47
2023-03-15T06:31:49.513Z,8.87
2023-03-15T06:34:39.649Z,9.00
2023-03-15T06:37:35.375Z,8.93
2023-03-15T06:40:25.696Z,9.40
2023-03-15T06:43:19.494Z,8.80
2023-03-15T06:46:09.472Z,9.53
2023-03-15T06:48:58.903Z,8.73
2023-03-15T06:51:49.100Z,9.10
2023-03-15T06:54:39.900Z,8.70
2023-03-15T06:57:29.270Z,8.83
2023-03-15T07:00:19.776Z,9.07
2023-03-15T07:03:09.130Z,8.90
2023-03-15T07:05:58.486Z,8.80
2023-03-15T07:08:47.751Z,8.93
2023-03-15T07:11:38.484Z,8.80
2023-03-15T07:14:27.776Z,9.10
2023-03-15T07:17:17.449Z,9.07
2023-03-15T07:20:08.148Z,8.90
2023-03-15T07:22:57.600Z,8.53
2023-03-15T07:25:54.944Z,9.10
2023-03-15T07:28:46.618Z,8.40
2023-03-15T07:31:36.007Z,8.50
2023-03-15T07:34:25.561Z,8.80
2023-03-15T07:37:14.923Z,8.70
2023-03-15T07:40:06.636Z,8.63
2023-03-15T07:42:55.939Z,8.63
2023-03-15T07:45:46.684Z,8.50
2023-03-15T07:48:36.129Z,9.20
2023-03-15T07:51:25.459Z,8.73
2023-03-15T07:54:14.781Z,8.90
2023-03-15T07:57:04.466Z,8.73
2023-03-15T07:59:54.327Z,8.80
2023-03-15T08:02:45.569Z,11.90
2023-03-15T08:05:35.131Z,10.87
2023-03-15T08:08:24.502Z,9.70
2023-03-15T08:11:14.191Z,9.80
2023-03-15T08:14:03.465Z,9.30
2023-03-15T08:16:53.263Z,8.70
2023-03-15T08:19:44.847Z,8.67
2023-03-15T08:22:34.383Z,9.00
2023-03-15T08:25:25.402Z,9.10
2023-03-15T08:28:15.820Z,9.00
2023-03-15T08:31:08.775Z,8.80
2023-03-15T08:33:58.083Z,8.63
2023-03-15T08:36:49.663Z,8.73
2023-03-15T08:39:39.388Z,8.90
2023-03-15T08:42:28.974Z,9.00
2023-03-15T08:45:18.654Z,8.80
2023-03-15T08:48:08.263Z,8.80
2023-03-15T08:50:58.720Z,8.70
2023-03-15T08:53:49.538Z,8.77
2023-03-15T08:56:38.877Z,8.70
2023-03-15T08:59:32.409Z,8.80
2023-03-15T09:02:22.460Z,8.53
2023-03-15T09:05:11.969Z,9.00
2023-03-15T09:08:01.952Z,9.20
2023-03-15T09:10:56.031Z,9.30
2023-03-15T09:13:45.293Z,9.13
2023-03-15T09:16:34.726Z,9.27
2023-03-15T09:19:24.102Z,8.87
2023-03-15T09:22:17.109Z,8.83
2023-03-15T09:25:13.045Z,9.17
2023-03-15T09:28:03.829Z,9.00
2023-03-15T09:30:53.579Z,9.43
2023-03-15T09:33:46.648Z,8.80
2023-03-15T09:36:35.960Z,9.17
2023-03-15T09:39:25.266Z,9.03
2023-03-15T09:42:24.920Z,9.03
2023-03-15T09:45:25.464Z,9.00
2023-03-15T09:48:22.776Z,9.30
2023-03-15T09:51:18.706Z,9.00
2023-03-15T09:54:16.152Z,8.93
2023-03-15T09:57:14.535Z,8.70
2023-03-15T10:00:10.794Z,8.93
2023-03-15T10:03:07.099Z,9.03
2023-03-15T10:06:01.891Z,9.50
2023-03-15T10:08:56.499Z,9.10
2023-03-15T10:11:56.411Z,8.90
2023-03-15T10:15:25.804Z,9.30
2023-03-15T10:18:48.471Z,9.23
2023-03-15T10:21:51.189Z,8.93
2023-03-15T10:24:45.837Z,9.10
2023-03-15T10:27:43.399Z,9.50
2023-03-15T10:30:35.878Z,9.23
2023-03-15T10:33:33.018Z,9.23
2023-03-15T10:36:25.169Z,9.20
2023-03-15T10:39:14.875Z,9.20
2023-03-15T10:42:05.211Z,9.30
2023-03-15T10:44:54.576Z,9.10
2023-03-15T10:47:53.994Z,9.00
2023-03-15T10:50:52.689Z,8.90
2023-03-15T10:53:54.866Z,9.40
2023-03-15T10:56:48.675Z,9.63
2023-03-15T10:59:37.937Z,8.90
2023-03-15T11:02:27.809Z,8.97
2023-03-15T11:05:20.127Z,8.87
2023-03-15T11:08:16.165Z,9.70
2023-03-15T11:11:06.515Z,8.90
2023-03-15T11:14:02.234Z,9.00
2023-03-15T11:16:54.141Z,9.27
2023-03-15T11:19:57.887Z,9.30
2023-03-15T11:22:47.171Z,9.30
2023-03-15T11:25:38.019Z,9.20
2023-03-15T11:28:31.355Z,9.53
2023-03-15T11:31:21.865Z,9.10
2023-03-15T11:34:17.665Z,9.00
2023-03-15T11:37:15.679Z,9.10
2023-03-15T11:40:15.554Z,8.73
2023-03-15T11:43:13.720Z,9.30
2023-03-15T11:46:07.679Z,9.10
2023-03-15T11:49:17.015Z,9.40
2023-03-15T11:52:07.464Z,9.00
2023-03-15T11:54:59.727Z,9.10
2023-03-15T11:57:51.095Z,9.17
2023-03-15T12:00:56.371Z,9.17
2023-03-15T12:03:46.324Z,9.10
2023-03-15T12:06:40.148Z,9.40
2023-03-15T12:09:52.249Z,9.10
2023-03-15T12:12:47.727Z,8.97
2023-03-15T12:15:51.026Z,9.70
2023-03-15T12:18:46.300Z,9.00
2023-03-15T12:21:39.928Z,8.90
2023-03-15T12:24:32.853Z,9.00
2023-03-15T12:27:22.508Z,9.20
2023-03-15T12:30:22.963Z,9.10
2023-03-15T12:33:20.237Z,8.70
2023-03-15T12:36:15.979Z,9.10
2023-03-15T12:39:30.746Z,8.93
2023-03-15T12:43:13.002Z,9.07
2023-03-15T12:46:02.375Z,9.10
2023-03-15T12:51:58.105Z,8.97
2023-03-15T12:54:55.262Z,8.93
2023-03-15T12:57:50.867Z,8.93
2023-03-15T13:00:43.627Z,9.10
2023-03-15T13:03:36.982Z,8.80
2023-03-15T13:06:44.865Z,9.30
2023-03-15T13:10:20.528Z,8.97
2023-03-15T13:14:03.087Z,9.17
2023-03-15T13:17:00.185Z,8.80
2023-03-15T13:19:57.694Z,9.00
2023-03-15T13:22:59.047Z,8.90
2023-03-15T13:26:03.229Z,9.10
2023-03-15T13:29:01.172Z,9.00
2023-03-15T13:32:03.251Z,9.10
2023-03-15T13:34:52.719Z,8.80
2023-03-15T13:37:45.155Z,9.40
2023-03-15T13:40:36.070Z,9.27
2023-03-15T13:43:33.102Z,9.13
2023-03-15T13:46:26.667Z,8.80
2023-03-15T13:49:16.556Z,8.90
2023-03-15T13:52:12.386Z,9.10
2023-03-15T13:55:03.203Z,9.00
2023-03-15T13:57:59.279Z,9.10
2023-03-15T14:00:48.687Z,8.93
2023-03-15T14:03:43.281Z,8.93
2023-03-15T14:06:32.886Z,9.00
2023-03-15T14:09:30.256Z,9.30
2023-03-15T14:12:23.174Z,8.90
2023-03-15T14:15:21.244Z,9.03
2023-03-15T14:18:20.700Z,9.03
2023-03-15T14:21:16.269Z,9.50
2023-03-15T14:24:09.819Z,9.00
2023-03-15T14:27:02.106Z,8.80
2023-03-15T14:29:54.621Z,8.90
2023-03-15T14:32:54.681Z,8.90
2023-03-15T14:35:46.277Z,9.10
2023-03-15T14:38:41.085Z,8.93
2023-03-15T14:41:34.061Z,9.27
2023-03-15T14:44:23.415Z,8.97
2023-03-15T14:47:16.304Z,8.90
2023-03-15T14:50:13.855Z,8.90
2023-03-15T14:53:04.644Z,9.10
2023-03-15T14:55:53.977Z,9.20
2023-03-15T14:58:44.044Z,9.40
2023-03-15T15:01:33.346Z,9.07
2023-03-15T15:04:23.444Z,9.47
2023-03-15T15:07:14.755Z,9.00
2023-03-15T15:10:04.100Z,9.73
2023-03-15T15:13:05.292Z,9.00
2023-03-15T15:15:57.136Z,9.00
2023-03-15T15:18:46.667Z,8.80
2023-03-15T15:21:37.171Z,9.00
2023-03-15T15:24:28.387Z,9.10
2023-03-15T15:27:17.647Z,9.13
2023-03-15T15:30:12.703Z,8.97
2023-03-15T15:33:06.140Z,9.23
2023-03-15T15:35:57.846Z,9.30
2023-03-15T15:38:47.195Z,9.00
2023-03-15T15:41:38.000Z,9.03
2023-03-15T15:44:27.676Z,8.90
2023-03-15T15:47:16.976Z,9.17
2023-03-15T15:50:07.243Z,8.90
2023-03-15T15:52:56.713Z,8.80
2023-03-15T15:55:46.633Z,8.83
2023-03-15T15:58:37.296Z,9.00
2023-03-15T16:01:26.733Z,8.83
2023-03-15T16:04:16.266Z,9.03
2023-03-15T16:07:07.014Z,9.03
2023-03-15T16:09:59.270Z,9.10
2023-03-15T16:12:50.170Z,9.13
2023-03-15T16:15:40.888Z,9.10
2023-03-15T16:18:30.202Z,8.90
2023-03-15T16:21:28.035Z,9.20
2023-03-15T16:24:21.277Z,9.10
2023-03-15T16:27:13.673Z,9.30
2023-03-15T16:30:04.633Z,9.20
2023-03-15T16:32:56.134Z,9.30
2023-03-15T16:35:45.899Z,9.30
2023-03-15T16:38:36.333Z,9.20
2023-03-15T16:41:26.306Z,9.10
2023-03-15T16:44:18.427Z,9.13
2023-03-15T16:47:08.034Z,9.33
2023-03-15T16:49:58.694Z,9.60
2023-03-15T16:52:52.904Z,9.10
2023-03-15T16:55:42.561Z,9.53
2023-03-15T16:58:32.194Z,9.40
2023-03-15T17:01:21.751Z,9.20
2023-03-15T17:04:11.119Z,9.30
2023-03-15T17:07:04.651Z,9.60
2023-03-15T17:09:53.993Z,9.40
2023-03-15T17:12:43.416Z,9.20
2023-03-15T17:15:32.747Z,9.23
2023-03-15T17:18:28.429Z,9.20
2023-03-15T17:21:22.200Z,9.23
2023-03-15T17:24:13.668Z,9.87
2023-03-15T17:27:03.084Z,9.57
2023-03-15T17:29:52.402Z,10.13
2023-03-15T17:32:41.807Z,10.77
2023-03-15T17:35:35.018Z,10.53
2023-03-15T17:38:27.910Z,10.67
2023-03-15T17:41:22.856Z,10.00
2023-03-15T17:44:12.411Z,9.60
2023-03-15T17:47:03.431Z,9.80
2023-03-15T17:49:53.953Z,9.70
2023-03-15T17:52:44.481Z,9.50
2023-03-15T17:55:35.442Z,9.63
2023-03-15T17:58:27.530Z,9.50
2023-03-15T18:01:19.831Z,9.60
2023-03-15T18:04:12.220Z,9.50
2023-03-15T18:07:01.519Z,9.20
2023-03-15T18:09:51.013Z,9.20
2023-03-15T18:12:41.097Z,9.37
2023-03-15T18:15:31.871Z,9.30
2023-03-15T18:18:21.786Z,9.60
2023-03-15T18:21:15.106Z,9.37
2023-03-15T18:24:04.640Z,9.03
2023-03-15T18:26:54.314Z,9.10
2023-03-15T18:29:43.619Z,9.23
2023-03-15T18:32:34.390Z,9.60
2023-03-15T18:35:26.896Z,9.30
2023-03-15T18:38:16.274Z,9.10
2023-03-15T18:41:05.687Z,9.43
2023-03-15T18:43:55.016Z,9.30
2023-03-15T18:46:44.408Z,9.40
2023-03-15T18:49:35.614Z,9.47
2023-03-15T18:52:24.951Z,9.50
2023-03-15T18:55:16.756Z,9.43
2023-03-15T18:58:08.956Z,9.83
2023-03-15T19:00:58.612Z,9.47
2023-03-15T19:03:47.924Z,9.40
2023-03-15T19:06:38.748Z,9.23
2023-03-15T19:09:28.037Z,9.60
2023-03-15T19:12:17.347Z,9.23
2023-03-15T19:15:10.605Z,9.50
2023-03-15T19:17:59.904Z,9.20
2023-03-15T19:20:49.275Z,9.73
2023-03-15T19:23:40.020Z,9.60
2023-03-15T19:26:29.328Z,9.83
2023-03-15T19:29:18.559Z,13.23
2023-03-15T19:32:07.997Z,11.10
2023-03-15T19:34:57.585Z,11.40
2023-03-15T19:37:47.554Z,11.30
2023-03-15T19:40:39.012Z,10.03
2023-03-15T19:43:28.535Z,10.40
2023-03-15T19:46:18.033Z,10.80
2023-03-15T19:49:07.331Z,9.97
2023-03-15T19:51:56.643Z,10.63
2023-03-15T19:54:47.492Z,9.80
2023-03-15T19:57:38.316Z,9.90
2023-03-15T20:00:28.015Z,9.97
2023-03-15T20:03:17.408Z,9.57
2023-03-15T20:06:09.364Z,9.70
2023-03-15T20:08:58.856Z,9.80
2023-03-15T20:11:48.107Z,9.70
2023-03-15T20:14:39.462Z,9.70
2023-03-15T20:17:28.871Z,9.37
2023-03-15T20:20:19.052Z,10.07
2023-03-15T20:23:08.561Z,9.40
2023-03-15T20:26:06.893Z,9.50
2023-03-15T20:28:56.146Z,9.70
2023-03-15T20:31:46.917Z,9.30
2023-03-15T20:34:36.422Z,11.50
2023-03-15T20:37:26.201Z,10.47
2023-03-15T20:40:17.133Z,10.37
2023-03-15T20:43:07.121Z,9.73
2023-03-15T20:45:59.634Z,9.70
2023-03-15T20:48:52.286Z,9.70
2023-03-15T20:51:41.668Z,9.70
2023-03-15T20:54:30.929Z,9.50
2023-03-15T20:57:20.212Z,9.83
2023-03-15T21:00:13.003Z,9.90
2023-03-15T21:03:03.493Z,9.77
2023-03-15T21:05:54.302Z,9.40
2023-03-15T21:08:44.108Z,8.70
2023-03-15T21:11:33.613Z,9.70
2023-03-15T21:14:23.113Z,9.80
2023-03-15T21:17:14.371Z,9.77
2023-03-15T21:20:07.347Z,10.20
2023-03-15T21:22:58.080Z,9.53
2023-03-15T21:25:55.508Z,10.27
2023-03-15T21:28:45.765Z,9.53
2023-03-15T21:31:36.552Z,9.53
2023-03-15T21:34:25.965Z,9.57
2023-03-15T21:37:15.249Z,9.90
2023-03-15T21:40:07.572Z,9.80
2023-03-15T21:42:56.892Z,9.73
2023-03-15T21:45:46.329Z,10.07
2023-03-15T21:48:36.948Z,9.53
2023-03-15T21:51:26.254Z,9.90
2023-03-15T21:54:16.107Z,9.70
2023-03-15T21:57:07.470Z,9.80
2023-03-15T21:59:57.109Z,9.70
2023-03-15T22:02:46.870Z,9.73
2023-03-15T22:05:36.838Z,9.90
2023-03-15T22:08:26.455Z,9.80
2023-03-15T22:11:15.812Z,9.40
2023-03-15T22:14:06.570Z,9.57
2023-03-15T22:16:56.023Z,9.60
2023-03-15T22:19:45.530Z,9.70
2023-03-15T22:22:34.821Z,10.60
2023-03-15T22:25:24.219Z,9.80
2023-03-15T22:28:13.788Z,9.93
2023-03-15T22:31:04.619Z,9.80
2023-03-15T22:33:54.030Z,9.83
2023-03-15T22:36:43.735Z,9.33
2023-03-15T22:39:34.036Z,10.07
2023-03-15T22:42:23.392Z,9.90
2023-03-15T22:45:13.536Z,9.60
2023-03-15T22:48:04.407Z,9.70
2023-03-15T22:51:01.276Z,9.90
2023-03-15T22:53:50.664Z,10.03
2023-03-15T22:56:41.050Z,9.40
2023-03-15T22:59:30.426Z,9.60
2023-03-15T23:02:19.771Z,10.00
2023-03-15T23:05:11.768Z,9.80
2023-03-15T23:08:01.205Z,9.90
2023-03-15T23:10:51.600Z,9.87
2023-03-15T23:13:42.173Z,9.83
2023-03-15T23:16:31.932Z,9.80
2023-03-15T23:19:22.382Z,9.43
2023-03-15T23:22:13.069Z,9.80
2023-03-15T23:25:02.995Z,9.53
2023-03-15T23:27:52.871Z,9.60
2023-03-15T23:30:45.596Z,10.17
2023-03-15T23:33:35.086Z,10.10
2023-03-15T23:36:24.503Z,9.70
2023-03-15T23:39:15.239Z,9.73
2023-03-15T23:42:04.800Z,9.70
2023-03-15T23:44:54.740Z,9.70
2023-03-15T23:47:44.092Z,9.90
2023-03-15T23:50:33.380Z,9.83
2023-03-15T23:53:23.170Z,9.33
2023-03-15T23:56:14.176Z,9.50
2023-03-15T23:59:03.501Z,9.73
